Harrells, North Carolina
Current Conditions -  °F | °C
As of 11:15 AM on Wednesday 26 Nov 2014 (Local Time) from KCTZ Reporting Station
Light Rain Light Rain  
Wind Chill: 42°   Ceiling: 1700
Heat Index: 47°   Visibility: 10mi
Dew Point: 46°   Wind: 10mph
Humidity: 97%   Direction: 20°NNE
Pressure: 29.87"   Gusts: 16mph
Location:  34.73°N, 78.2°W
Report Text: KCTZ 261615Z AUTO 02009G14KT 350V050 10SM -RA SCT012 BKN017 OVC041 08/08 A2987 RMK AO2 T00830078
Loading
Personal Weather Stations






























Interactive Weather Map New forecast layout! Learn more

10-Day Weather Forecast

Advertisements
Track Severe Weather on mobile